sensor_id;sensor_type;location;lat;lon;timestamp;temperature;humidity
19868;DHT22;10096;51.112;6.776;2023-03-21T00:02:02;11.40;1.00
19868;DHT22;10096;51.112;6.776;2023-03-21T00:04:29;11.40;1.00
19868;DHT22;10096;51.112;6.776;2023-03-21T00:06:56;11.20;1.00
19868;DHT22;10096;51.112;6.776;2023-03-21T00:09:23;11.40;1.00
19868;DHT22;10096;51.112;6.776;2023-03-21T00:11:51;11.40;1.00
19868;DHT22;10096;51.112;6.776;2023-03-21T00:14:18;11.20;1.00
19868;DHT22;10096;51.112;6.776;2023-03-21T00:16:45;11.40;1.00
19868;DHT22;10096;51.112;6.776;2023-03-21T00:19:15;11.20;1.00
19868;DHT22;10096;51.112;6.776;2023-03-21T00:21:42;11.10;1.00
19868;DHT22;10096;51.112;6.776;2023-03-21T00:24:10;11.40;1.00
19868;DHT22;10096;51.112;6.776;2023-03-21T00:26:37;11.20;1.00
19868;DHT22;10096;51.112;6.776;2023-03-21T00:29:07;11.30;1.00
19868;DHT22;10096;51.112;6.776;2023-03-21T00:31:34;11.40;1.00
19868;DHT22;10096;51.112;6.776;2023-03-21T00:34:03;11.50;1.00
19868;DHT22;10096;51.112;6.776;2023-03-21T00:36:30;11.40;1.00
19868;DHT22;10096;51.112;6.776;2023-03-21T00:38:58;11.40;1.00
19868;DHT22;10096;51.112;6.776;2023-03-21T00:41:25;11.20;1.00
19868;DHT22;10096;51.112;6.776;2023-03-21T00:43:52;11.20;1.00
19868;DHT22;10096;51.112;6.776;2023-03-21T00:46:21;11.20;1.00
19868;DHT22;10096;51.112;6.776;2023-03-21T00:48:48;11.20;1.00
19868;DHT22;10096;51.112;6.776;2023-03-21T00:51:20;11.40;1.00
19868;DHT22;10096;51.112;6.776;2023-03-21T00:53:51;11.10;1.00
19868;DHT22;10096;51.112;6.776;2023-03-21T00:56:18;11.20;1.00
19868;DHT22;10096;51.112;6.776;2023-03-21T00:58:44;11.30;1.00
19868;DHT22;10096;51.112;6.776;2023-03-21T01:01:11;11.20;1.00
19868;DHT22;10096;51.112;6.776;2023-03-21T01:03:43;11.20;1.00
19868;DHT22;10096;51.112;6.776;2023-03-21T01:06:16;11.20;1.00
19868;DHT22;10096;51.112;6.776;2023-03-21T01:08:47;11.20;1.00
19868;DHT22;10096;51.112;6.776;2023-03-21T01:11:16;11.20;1.00
19868;DHT22;10096;51.112;6.776;2023-03-21T01:13:44;11.20;1.00
19868;DHT22;10096;51.112;6.776;2023-03-21T01:16:11;11.20;1.00
19868;DHT22;10096;51.112;6.776;2023-03-21T01:18:40;11.20;1.00
19868;DHT22;10096;51.112;6.776;2023-03-21T01:21:11;11.10;1.00
19868;DHT22;10096;51.112;6.776;2023-03-21T01:23:41;11.20;1.00
19868;DHT22;10096;51.112;6.776;2023-03-21T01:26:10;11.10;1.00
19868;DHT22;10096;51.112;6.776;2023-03-21T01:28:38;11.40;1.00
19868;DHT22;10096;51.112;6.776;2023-03-21T01:31:06;11.20;1.00
19868;DHT22;10096;51.112;6.776;2023-03-21T01:33:34;11.40;1.00
19868;DHT22;10096;51.112;6.776;2023-03-21T01:36:02;11.40;1.00
19868;DHT22;10096;51.112;6.776;2023-03-21T01:38:31;11.30;1.00
19868;DHT22;10096;51.112;6.776;2023-03-21T01:40:59;11.20;1.00
19868;DHT22;10096;51.112;6.776;2023-03-21T01:43:28;11.30;1.00
19868;DHT22;10096;51.112;6.776;2023-03-21T01:46:32;11.30;1.00
19868;DHT22;10096;51.112;6.776;2023-03-21T01:49:03;11.30;1.00
19868;DHT22;10096;51.112;6.776;2023-03-21T01:51:35;11.20;1.00
19868;DHT22;10096;51.112;6.776;2023-03-21T01:54:07;11.20;1.00
19868;DHT22;10096;51.112;6.776;2023-03-21T01:56:38;11.20;1.00
19868;DHT22;10096;51.112;6.776;2023-03-21T01:59:09;11.40;1.00
19868;DHT22;10096;51.112;6.776;2023-03-21T02:01:37;11.30;1.00
19868;DHT22;10096;51.112;6.776;2023-03-21T02:04:06;11.30;1.00
19868;DHT22;10096;51.112;6.776;2023-03-21T02:06:39;11.30;1.00
19868;DHT22;10096;51.112;6.776;2023-03-21T02:09:12;11.30;1.00
19868;DHT22;10096;51.112;6.776;2023-03-21T02:11:40;11.00;1.00
19868;DHT22;10096;51.112;6.776;2023-03-21T02:14:13;11.40;1.00
19868;DHT22;10096;51.112;6.776;2023-03-21T02:16:47;11.20;1.00
19868;DHT22;10096;51.112;6.776;2023-03-21T02:28:20;11.10;1.00
19868;DHT22;10096;51.112;6.776;2023-03-21T02:31:17;11.00;1.00
19868;DHT22;10096;51.112;6.776;2023-03-21T02:34:02;11.00;1.00
19868;DHT22;10096;51.112;6.776;2023-03-21T02:36:54;11.20;1.00
19868;DHT22;10096;51.112;6.776;2023-03-21T02:39:26;11.00;1.00
19868;DHT22;10096;51.112;6.776;2023-03-21T02:42:01;11.00;1.00
19868;DHT22;10096;51.112;6.776;2023-03-21T02:44:36;11.20;1.00
19868;DHT22;10096;51.112;6.776;2023-03-21T02:47:10;11.00;1.00
19868;DHT22;10096;51.112;6.776;2023-03-21T02:49:42;10.90;1.00
19868;DHT22;10096;51.112;6.776;2023-03-21T02:52:18;11.10;1.00
19868;DHT22;10096;51.112;6.776;2023-03-21T02:54:47;10.90;1.00
19868;DHT22;10096;51.112;6.776;2023-03-21T02:57:17;10.90;1.00
19868;DHT22;10096;51.112;6.776;2023-03-21T02:59:45;11.00;1.00
19868;DHT22;10096;51.112;6.776;2023-03-21T03:02:12;10.80;1.00
19868;DHT22;10096;51.112;6.776;2023-03-21T03:04:41;11.00;1.00
19868;DHT22;10096;51.112;6.776;2023-03-21T03:07:16;10.80;1.00
19868;DHT22;10096;51.112;6.776;2023-03-21T03:10:10;10.70;1.00
19868;DHT22;10096;51.112;6.776;2023-03-21T03:12:46;10.80;1.00
19868;DHT22;10096;51.112;6.776;2023-03-21T03:15:23;10.70;1.00
19868;DHT22;10096;51.112;6.776;2023-03-21T03:17:59;11.00;1.00
19868;DHT22;10096;51.112;6.776;2023-03-21T03:20:36;10.70;1.00
19868;DHT22;10096;51.112;6.776;2023-03-21T03:23:15;10.70;1.00
19868;DHT22;10096;51.112;6.776;2023-03-21T03:25:48;10.70;1.00
19868;DHT22;10096;51.112;6.776;2023-03-21T03:28:21;10.80;1.00
19868;DHT22;10096;51.112;6.776;2023-03-21T03:30:50;10.60;1.00
19868;DHT22;10096;51.112;6.776;2023-03-21T03:33:19;10.80;1.00
19868;DHT22;10096;51.112;6.776;2023-03-21T03:35:49;10.70;1.00
19868;DHT22;10096;51.112;6.776;2023-03-21T03:38:20;10.70;1.00
19868;DHT22;10096;51.112;6.776;2023-03-21T03:40:51;10.70;1.00
19868;DHT22;10096;51.112;6.776;2023-03-21T03:43:22;10.80;1.00
19868;DHT22;10096;51.112;6.776;2023-03-21T03:45:55;10.60;1.00
19868;DHT22;10096;51.112;6.776;2023-03-21T03:48:28;10.90;1.00
19868;DHT22;10096;51.112;6.776;2023-03-21T03:51:02;10.90;1.00
19868;DHT22;10096;51.112;6.776;2023-03-21T03:53:35;10.70;1.00
19868;DHT22;10096;51.112;6.776;2023-03-21T03:56:07;10.80;1.00
19868;DHT22;10096;51.112;6.776;2023-03-21T03:58:37;10.80;1.00
19868;DHT22;10096;51.112;6.776;2023-03-21T04:01:06;10.80;1.00
19868;DHT22;10096;51.112;6.776;2023-03-21T04:03:34;10.80;1.00
19868;DHT22;10096;51.112;6.776;2023-03-21T04:06:03;10.90;1.00
19868;DHT22;10096;51.112;6.776;2023-03-21T04:08:30;10.90;1.00
19868;DHT22;10096;51.112;6.776;2023-03-21T04:11:00;10.90;1.00
19868;DHT22;10096;51.112;6.776;2023-03-21T04:13:27;10.90;1.00
19868;DHT22;10096;51.112;6.776;2023-03-21T04:15:54;10.90;1.00
19868;DHT22;10096;51.112;6.776;2023-03-21T04:18:22;11.00;1.00
19868;DHT22;10096;51.112;6.776;2023-03-21T04:20:49;10.80;1.00
19868;DHT22;10096;51.112;6.776;2023-03-21T04:23:17;11.00;1.00
19868;DHT22;10096;51.112;6.776;2023-03-21T04:25:44;10.90;1.00
19868;DHT22;10096;51.112;6.776;2023-03-21T04:28:13;10.80;1.00
19868;DHT22;10096;51.112;6.776;2023-03-21T04:30:40;10.90;1.00
19868;DHT22;10096;51.112;6.776;2023-03-21T04:33:07;11.00;1.00
19868;DHT22;10096;51.112;6.776;2023-03-21T04:35:34;11.00;1.00
19868;DHT22;10096;51.112;6.776;2023-03-21T04:38:02;11.00;1.00
19868;DHT22;10096;51.112;6.776;2023-03-21T04:40:29;11.00;1.00
19868;DHT22;10096;51.112;6.776;2023-03-21T04:42:56;11.10;1.00
19868;DHT22;10096;51.112;6.776;2023-03-21T04:45:27;11.10;1.00
19868;DHT22;10096;51.112;6.776;2023-03-21T04:47:54;10.90;1.00
19868;DHT22;10096;51.112;6.776;2023-03-21T04:50:22;10.90;1.00
19868;DHT22;10096;51.112;6.776;2023-03-21T04:52:50;10.70;1.00
19868;DHT22;10096;51.112;6.776;2023-03-21T04:55:17;10.80;1.00
19868;DHT22;10096;51.112;6.776;2023-03-21T04:57:46;10.90;1.00
19868;DHT22;10096;51.112;6.776;2023-03-21T05:00:14;10.90;1.00
19868;DHT22;10096;51.112;6.776;2023-03-21T05:02:42;10.70;1.00
19868;DHT22;10096;51.112;6.776;2023-03-21T05:05:10;10.70;1.00
19868;DHT22;10096;51.112;6.776;2023-03-21T05:07:39;10.70;1.00
19868;DHT22;10096;51.112;6.776;2023-03-21T05:10:08;10.80;1.00
19868;DHT22;10096;51.112;6.776;2023-03-21T05:12:36;10.80;1.00
19868;DHT22;10096;51.112;6.776;2023-03-21T05:15:04;10.80;1.00
19868;DHT22;10096;51.112;6.776;2023-03-21T05:17:31;10.90;1.00
19868;DHT22;10096;51.112;6.776;2023-03-21T05:20:01;11.10;1.00
19868;DHT22;10096;51.112;6.776;2023-03-21T05:22:32;11.00;1.00
19868;DHT22;10096;51.112;6.776;2023-03-21T05:25:06;11.10;1.00
19868;DHT22;10096;51.112;6.776;2023-03-21T05:27:34;11.20;1.00
19868;DHT22;10096;51.112;6.776;2023-03-21T05:30:04;11.10;1.00
19868;DHT22;10096;51.112;6.776;2023-03-21T05:32:33;11.10;1.00
19868;DHT22;10096;51.112;6.776;2023-03-21T05:35:02;11.00;1.00
19868;DHT22;10096;51.112;6.776;2023-03-21T05:37:31;11.00;1.00
19868;DHT22;10096;51.112;6.776;2023-03-21T05:39:58;10.90;1.00
19868;DHT22;10096;51.112;6.776;2023-03-21T05:42:25;11.10;1.00
19868;DHT22;10096;51.112;6.776;2023-03-21T05:44:52;11.20;1.00
19868;DHT22;10096;51.112;6.776;2023-03-21T05:47:19;11.30;1.00
19868;DHT22;10096;51.112;6.776;2023-03-21T05:49:46;11.20;1.00
19868;DHT22;10096;51.112;6.776;2023-03-21T05:52:15;11.40;1.00
19868;DHT22;10096;51.112;6.776;2023-03-21T05:54:43;11.10;1.00
19868;DHT22;10096;51.112;6.776;2023-03-21T05:57:12;11.00;1.00
19868;DHT22;10096;51.112;6.776;2023-03-21T05:59:39;10.90;1.00
19868;DHT22;10096;51.112;6.776;2023-03-21T06:02:05;10.80;1.00
19868;DHT22;10096;51.112;6.776;2023-03-21T06:04:32;10.80;1.00
19868;DHT22;10096;51.112;6.776;2023-03-21T06:07:00;11.00;1.00
19868;DHT22;10096;51.112;6.776;2023-03-21T06:09:28;10.80;1.00
19868;DHT22;10096;51.112;6.776;2023-03-21T06:11:56;10.90;1.00
19868;DHT22;10096;51.112;6.776;2023-03-21T06:14:24;10.80;1.00
19868;DHT22;10096;51.112;6.776;2023-03-21T06:16:51;10.70;1.00
19868;DHT22;10096;51.112;6.776;2023-03-21T06:19:20;10.70;1.00
19868;DHT22;10096;51.112;6.776;2023-03-21T06:21:48;10.70;1.00
19868;DHT22;10096;51.112;6.776;2023-03-21T06:24:16;10.70;1.00
19868;DHT22;10096;51.112;6.776;2023-03-21T06:26:45;10.70;1.00
19868;DHT22;10096;51.112;6.776;2023-03-21T06:29:12;11.00;1.00
19868;DHT22;10096;51.112;6.776;2023-03-21T06:31:40;10.70;1.00
19868;DHT22;10096;51.112;6.776;2023-03-21T06:34:07;10.80;1.00
19868;DHT22;10096;51.112;6.776;2023-03-21T06:36:35;10.80;1.00
19868;DHT22;10096;51.112;6.776;2023-03-21T06:39:31;10.80;1.00
19868;DHT22;10096;51.112;6.776;2023-03-21T06:42:20;10.90;1.00
19868;DHT22;10096;51.112;6.776;2023-03-21T06:44:46;10.90;1.00
19868;DHT22;10096;51.112;6.776;2023-03-21T06:47:13;11.10;1.00
19868;DHT22;10096;51.112;6.776;2023-03-21T06:49:42;11.00;1.00
19868;DHT22;10096;51.112;6.776;2023-03-21T06:52:10;10.90;1.00
19868;DHT22;10096;51.112;6.776;2023-03-21T06:54:37;11.10;1.00
19868;DHT22;10096;51.112;6.776;2023-03-21T06:57:04;11.10;1.00
19868;DHT22;10096;51.112;6.776;2023-03-21T06:59:34;11.10;1.00
19868;DHT22;10096;51.112;6.776;2023-03-21T07:02:01;11.40;1.00
19868;DHT22;10096;51.112;6.776;2023-03-21T07:04:32;11.30;1.00
19868;DHT22;10096;51.112;6.776;2023-03-21T07:06:59;11.30;1.00
19868;DHT22;10096;51.112;6.776;2023-03-21T07:09:26;11.20;1.00
19868;DHT22;10096;51.112;6.776;2023-03-21T07:11:53;11.30;1.00
19868;DHT22;10096;51.112;6.776;2023-03-21T07:14:20;11.50;1.00
19868;DHT22;10096;51.112;6.776;2023-03-21T07:16:49;11.60;1.00
19868;DHT22;10096;51.112;6.776;2023-03-21T07:19:16;11.80;1.00
19868;DHT22;10096;51.112;6.776;2023-03-21T07:21:43;11.60;1.00
19868;DHT22;10096;51.112;6.776;2023-03-21T07:24:10;11.50;1.00
19868;DHT22;10096;51.112;6.776;2023-03-21T07:26:40;11.50;1.00
19868;DHT22;10096;51.112;6.776;2023-03-21T07:29:07;11.30;1.00
19868;DHT22;10096;51.112;6.776;2023-03-21T07:31:36;11.20;1.00
19868;DHT22;10096;51.112;6.776;2023-03-21T07:34:06;11.10;1.00
19868;DHT22;10096;51.112;6.776;2023-03-21T07:36:33;11.00;1.00
19868;DHT22;10096;51.112;6.776;2023-03-21T07:39:03;11.30;64.70
19868;DHT22;10096;51.112;6.776;2023-03-21T07:41:30;11.00;99.90
19868;DHT22;10096;51.112;6.776;2023-03-21T07:43:57;11.00;99.90
19868;DHT22;10096;51.112;6.776;2023-03-21T07:46:25;10.90;99.90
19868;DHT22;10096;51.112;6.776;2023-03-21T07:48:52;10.90;99.90
19868;DHT22;10096;51.112;6.776;2023-03-21T07:51:20;11.00;99.90
19868;DHT22;10096;51.112;6.776;2023-03-21T07:53:47;11.00;99.90
19868;DHT22;10096;51.112;6.776;2023-03-21T07:56:14;11.00;99.90
19868;DHT22;10096;51.112;6.776;2023-03-21T07:58:41;11.00;99.90
19868;DHT22;10096;51.112;6.776;2023-03-21T08:01:08;11.10;99.90
19868;DHT22;10096;51.112;6.776;2023-03-21T08:03:36;11.00;99.90
19868;DHT22;10096;51.112;6.776;2023-03-21T08:06:06;11.20;99.90
19868;DHT22;10096;51.112;6.776;2023-03-21T08:08:35;11.10;99.90
19868;DHT22;10096;51.112;6.776;2023-03-21T08:11:03;11.20;99.90
19868;DHT22;10096;51.112;6.776;2023-03-21T08:13:30;11.10;99.90
19868;DHT22;10096;51.112;6.776;2023-03-21T08:15:57;11.10;99.90
19868;DHT22;10096;51.112;6.776;2023-03-21T08:18:24;11.20;99.90
19868;DHT22;10096;51.112;6.776;2023-03-21T08:20:52;11.10;99.90
19868;DHT22;10096;51.112;6.776;2023-03-21T08:23:19;11.00;99.90
19868;DHT22;10096;51.112;6.776;2023-03-21T08:25:53;10.90;99.90
19868;DHT22;10096;51.112;6.776;2023-03-21T08:28:23;11.10;99.90
19868;DHT22;10096;51.112;6.776;2023-03-21T08:30:50;11.30;99.90
19868;DHT22;10096;51.112;6.776;2023-03-21T08:33:17;11.00;99.90
19868;DHT22;10096;51.112;6.776;2023-03-21T08:35:44;11.10;99.90
19868;DHT22;10096;51.112;6.776;2023-03-21T08:38:11;11.30;99.90
19868;DHT22;10096;51.112;6.776;2023-03-21T08:40:39;11.20;1.00
19868;DHT22;10096;51.112;6.776;2023-03-21T08:43:07;10.90;1.00
19868;DHT22;10096;51.112;6.776;2023-03-21T08:45:34;10.90;1.00
19868;DHT22;10096;51.112;6.776;2023-03-21T08:48:01;10.90;1.00
19868;DHT22;10096;51.112;6.776;2023-03-21T08:50:28;10.90;1.00
19868;DHT22;10096;51.112;6.776;2023-03-21T08:52:57;10.90;1.00
19868;DHT22;10096;51.112;6.776;2023-03-21T08:55:24;11.10;1.00
19868;DHT22;10096;51.112;6.776;2023-03-21T08:57:51;11.20;1.00
19868;DHT22;10096;51.112;6.776;2023-03-21T09:00:20;11.10;1.00
19868;DHT22;10096;51.112;6.776;2023-03-21T09:02:48;11.20;1.00
19868;DHT22;10096;51.112;6.776;2023-03-21T09:05:18;11.20;1.00
19868;DHT22;10096;51.112;6.776;2023-03-21T09:07:45;11.30;1.00
19868;DHT22;10096;51.112;6.776;2023-03-21T09:10:15;11.40;1.00
19868;DHT22;10096;51.112;6.776;2023-03-21T09:12:43;11.10;1.00
19868;DHT22;10096;51.112;6.776;2023-03-21T09:15:10;11.20;1.00
19868;DHT22;10096;51.112;6.776;2023-03-21T09:17:39;11.40;1.00
19868;DHT22;10096;51.112;6.776;2023-03-21T09:20:09;11.20;1.00
19868;DHT22;10096;51.112;6.776;2023-03-21T09:22:43;11.30;1.00
19868;DHT22;10096;51.112;6.776;2023-03-21T09:25:11;11.20;1.00
19868;DHT22;10096;51.112;6.776;2023-03-21T09:27:38;11.30;1.00
19868;DHT22;10096;51.112;6.776;2023-03-21T09:30:06;11.20;1.00
19868;DHT22;10096;51.112;6.776;2023-03-21T09:32:34;11.40;99.90
19868;DHT22;10096;51.112;6.776;2023-03-21T09:35:04;11.40;99.90
19868;DHT22;10096;51.112;6.776;2023-03-21T09:37:32;11.50;99.90
19868;DHT22;10096;51.112;6.776;2023-03-21T09:40:09;11.50;99.90
19868;DHT22;10096;51.112;6.776;2023-03-21T09:42:50;11.60;99.90
19868;DHT22;10096;51.112;6.776;2023-03-21T09:45:22;11.60;99.90
19868;DHT22;10096;51.112;6.776;2023-03-21T09:47:53;11.70;99.90
19868;DHT22;10096;51.112;6.776;2023-03-21T09:50:25;11.60;99.90
19868;DHT22;10096;51.112;6.776;2023-03-21T09:52:57;11.90;99.90
19868;DHT22;10096;51.112;6.776;2023-03-21T09:55:27;11.60;99.90
19868;DHT22;10096;51.112;6.776;2023-03-21T09:58:02;11.90;99.90
19868;DHT22;10096;51.112;6.776;2023-03-21T10:00:35;12.00;99.90
19868;DHT22;10096;51.112;6.776;2023-03-21T10:03:07;12.10;99.90
19868;DHT22;10096;51.112;6.776;2023-03-21T10:05:42;12.00;99.90
19868;DHT22;10096;51.112;6.776;2023-03-21T10:08:14;12.20;99.90
19868;DHT22;10096;51.112;6.776;2023-03-21T10:10:47;12.00;99.90
19868;DHT22;10096;51.112;6.776;2023-03-21T10:13:19;11.90;99.90
19868;DHT22;10096;51.112;6.776;2023-03-21T10:15:47;12.10;98.40
19868;DHT22;10096;51.112;6.776;2023-03-21T10:18:20;12.00;99.90
19868;DHT22;10096;51.112;6.776;2023-03-21T10:20:50;12.00;99.90
19868;DHT22;10096;51.112;6.776;2023-03-21T10:23:19;12.10;99.90
19868;DHT22;10096;51.112;6.776;2023-03-21T10:25:53;12.40;99.60
19868;DHT22;10096;51.112;6.776;2023-03-21T10:28:26;12.60;23.60
19868;DHT22;10096;51.112;6.776;2023-03-21T10:30:55;12.70;10.10
19868;DHT22;10096;51.112;6.776;2023-03-21T10:33:24;12.60;1.00
19868;DHT22;10096;51.112;6.776;2023-03-21T10:35:55;12.80;1.00
19868;DHT22;10096;51.112;6.776;2023-03-21T10:38:25;12.80;1.00
19868;DHT22;10096;51.112;6.776;2023-03-21T10:40:52;12.70;1.00
19868;DHT22;10096;51.112;6.776;2023-03-21T10:43:32;12.80;1.00
19868;DHT22;10096;51.112;6.776;2023-03-21T10:46:06;12.60;1.00
19868;DHT22;10096;51.112;6.776;2023-03-21T10:48:35;12.50;1.00
19868;DHT22;10096;51.112;6.776;2023-03-21T10:51:08;12.50;1.00
19868;DHT22;10096;51.112;6.776;2023-03-21T10:53:39;12.60;1.00
19868;DHT22;10096;51.112;6.776;2023-03-21T10:56:10;12.40;1.00
19868;DHT22;10096;51.112;6.776;2023-03-21T10:58:41;12.40;1.00
19868;DHT22;10096;51.112;6.776;2023-03-21T11:01:12;12.50;1.00
19868;DHT22;10096;51.112;6.776;2023-03-21T11:03:42;12.30;1.00
19868;DHT22;10096;51.112;6.776;2023-03-21T11:06:15;12.20;1.00
19868;DHT22;10096;51.112;6.776;2023-03-21T11:08:46;12.20;1.00
19868;DHT22;10096;51.112;6.776;2023-03-21T11:11:33;12.40;1.00
19868;DHT22;10096;51.112;6.776;2023-03-21T11:14:02;12.10;1.00
19868;DHT22;10096;51.112;6.776;2023-03-21T11:16:36;12.20;1.00
19868;DHT22;10096;51.112;6.776;2023-03-21T11:19:12;12.20;1.00
19868;DHT22;10096;51.112;6.776;2023-03-21T11:21:42;12.50;1.00
19868;DHT22;10096;51.112;6.776;2023-03-21T11:24:13;12.40;1.00
19868;DHT22;10096;51.112;6.776;2023-03-21T11:26:42;12.50;1.00
19868;DHT22;10096;51.112;6.776;2023-03-21T11:29:28;12.50;1.00
19868;DHT22;10096;51.112;6.776;2023-03-21T11:31:58;12.60;1.00
19868;DHT22;10096;51.112;6.776;2023-03-21T11:34:31;12.50;1.00
19868;DHT22;10096;51.112;6.776;2023-03-21T11:37:01;12.60;1.00
19868;DHT22;10096;51.112;6.776;2023-03-21T11:39:31;12.60;1.00
19868;DHT22;10096;51.112;6.776;2023-03-21T11:41:58;12.50;1.00
19868;DHT22;10096;51.112;6.776;2023-03-21T11:44:28;12.80;1.00
19868;DHT22;10096;51.112;6.776;2023-03-21T11:46:55;12.90;1.00
19868;DHT22;10096;51.112;6.776;2023-03-21T11:49:23;12.80;1.00
19868;DHT22;10096;51.112;6.776;2023-03-21T11:52:00;12.60;1.00
19868;DHT22;10096;51.112;6.776;2023-03-21T11:54:36;12.40;1.00
19868;DHT22;10096;51.112;6.776;2023-03-21T11:57:12;12.30;1.00
19868;DHT22;10096;51.112;6.776;2023-03-21T11:59:47;12.30;1.00
19868;DHT22;10096;51.112;6.776;2023-03-21T12:02:27;12.20;1.00
19868;DHT22;10096;51.112;6.776;2023-03-21T12:04:59;12.20;1.00
19868;DHT22;10096;51.112;6.776;2023-03-21T12:07:39;12.30;1.00
19868;DHT22;10096;51.112;6.776;2023-03-21T12:10:29;12.30;1.00
19868;DHT22;10096;51.112;6.776;2023-03-21T12:13:05;12.40;1.00
19868;DHT22;10096;51.112;6.776;2023-03-21T12:15:37;12.30;1.00
19868;DHT22;10096;51.112;6.776;2023-03-21T12:18:32;12.50;1.00
19868;DHT22;10096;51.112;6.776;2023-03-21T12:21:18;12.30;1.00
19868;DHT22;10096;51.112;6.776;2023-03-21T12:23:59;12.20;1.00
19868;DHT22;10096;51.112;6.776;2023-03-21T12:26:31;12.30;23.00
19868;DHT22;10096;51.112;6.776;2023-03-21T12:29:17;12.30;35.40
19868;DHT22;10096;51.112;6.776;2023-03-21T12:31:59;12.30;29.50
19868;DHT22;10096;51.112;6.776;2023-03-21T12:34:41;12.40;15.90
19868;DHT22;10096;51.112;6.776;2023-03-21T12:37:19;12.60;16.80
19868;DHT22;10096;51.112;6.776;2023-03-21T12:39:49;12.40;39.00
19868;DHT22;10096;51.112;6.776;2023-03-21T12:45:23;12.50;7.20
19868;DHT22;10096;51.112;6.776;2023-03-21T12:47:53;12.50;1.00
19868;DHT22;10096;51.112;6.776;2023-03-21T12:50:25;12.80;37.60
19868;DHT22;10096;51.112;6.776;2023-03-21T12:52:56;12.70;9.40
19868;DHT22;10096;51.112;6.776;2023-03-21T12:55:29;12.60;1.00
19868;DHT22;10096;51.112;6.776;2023-03-21T12:58:01;12.40;1.00
19868;DHT22;10096;51.112;6.776;2023-03-21T13:00:34;12.90;1.00
19868;DHT22;10096;51.112;6.776;2023-03-21T13:03:05;13.00;1.00
19868;DHT22;10096;51.112;6.776;2023-03-21T13:05:39;12.80;1.00
19868;DHT22;10096;51.112;6.776;2023-03-21T13:08:13;12.80;1.00
19868;DHT22;10096;51.112;6.776;2023-03-21T13:10:43;12.80;1.00
19868;DHT22;10096;51.112;6.776;2023-03-21T13:13:18;12.80;1.00
19868;DHT22;10096;51.112;6.776;2023-03-21T13:16:01;12.70;1.00
19868;DHT22;10096;51.112;6.776;2023-03-21T13:18:37;12.70;1.00
19868;DHT22;10096;51.112;6.776;2023-03-21T13:21:11;12.70;1.00
19868;DHT22;10096;51.112;6.776;2023-03-21T13:23:54;12.80;1.00
19868;DHT22;10096;51.112;6.776;2023-03-21T13:26:35;12.70;1.00
19868;DHT22;10096;51.112;6.776;2023-03-21T13:29:12;12.60;1.00
19868;DHT22;10096;51.112;6.776;2023-03-21T13:31:43;12.60;1.00
19868;DHT22;10096;51.112;6.776;2023-03-21T13:34:12;12.70;1.00
19868;DHT22;10096;51.112;6.776;2023-03-21T13:36:40;12.90;1.00
19868;DHT22;10096;51.112;6.776;2023-03-21T13:39:17;12.90;1.00
19868;DHT22;10096;51.112;6.776;2023-03-21T13:41:47;12.90;1.00
19868;DHT22;10096;51.112;6.776;2023-03-21T13:44:30;13.20;1.00
19868;DHT22;10096;51.112;6.776;2023-03-21T13:47:00;13.30;1.00
19868;DHT22;10096;51.112;6.776;2023-03-21T13:49:31;13.40;1.00
19868;DHT22;10096;51.112;6.776;2023-03-21T13:51:59;13.30;1.00
19868;DHT22;10096;51.112;6.776;2023-03-21T13:54:44;13.30;1.00
19868;DHT22;10096;51.112;6.776;2023-03-21T13:57:34;13.40;1.00
19868;DHT22;10096;51.112;6.776;2023-03-21T14:00:16;13.30;1.00
19868;DHT22;10096;51.112;6.776;2023-03-21T14:02:56;13.10;1.00
19868;DHT22;10096;51.112;6.776;2023-03-21T14:05:25;13.10;1.00
19868;DHT22;10096;51.112;6.776;2023-03-21T14:07:55;12.90;1.00
19868;DHT22;10096;51.112;6.776;2023-03-21T14:10:28;13.10;1.00
19868;DHT22;10096;51.112;6.776;2023-03-21T14:12:58;13.30;1.00
19868;DHT22;10096;51.112;6.776;2023-03-21T14:15:30;13.20;1.00
19868;DHT22;10096;51.112;6.776;2023-03-21T14:18:00;13.00;1.00
19868;DHT22;10096;51.112;6.776;2023-03-21T14:20:31;13.30;1.00
19868;DHT22;10096;51.112;6.776;2023-03-21T14:22:58;13.20;1.00
19868;DHT22;10096;51.112;6.776;2023-03-21T14:25:33;13.30;1.00
19868;DHT22;10096;51.112;6.776;2023-03-21T14:28:04;13.20;1.00
19868;DHT22;10096;51.112;6.776;2023-03-21T14:30:34;13.30;1.00
19868;DHT22;10096;51.112;6.776;2023-03-21T14:33:07;13.20;1.00
19868;DHT22;10096;51.112;6.776;2023-03-21T14:35:39;13.30;1.00
19868;DHT22;10096;51.112;6.776;2023-03-21T14:38:16;13.20;1.00
19868;DHT22;10096;51.112;6.776;2023-03-21T14:40:46;13.20;1.00
19868;DHT22;10096;51.112;6.776;2023-03-21T14:43:15;13.40;1.00
19868;DHT22;10096;51.112;6.776;2023-03-21T14:45:46;13.80;1.00
19868;DHT22;10096;51.112;6.776;2023-03-21T14:48:15;13.60;1.00
19868;DHT22;10096;51.112;6.776;2023-03-21T14:50:46;13.70;1.00
19868;DHT22;10096;51.112;6.776;2023-03-21T14:53:15;13.70;1.00
19868;DHT22;10096;51.112;6.776;2023-03-21T14:55:46;13.70;1.00
19868;DHT22;10096;51.112;6.776;2023-03-21T14:58:17;13.80;1.00
19868;DHT22;10096;51.112;6.776;2023-03-21T15:00:47;13.80;1.00
19868;DHT22;10096;51.112;6.776;2023-03-21T15:03:15;13.70;1.00
19868;DHT22;10096;51.112;6.776;2023-03-21T15:05:45;14.00;1.00
19868;DHT22;10096;51.112;6.776;2023-03-21T15:08:14;13.80;1.00
19868;DHT22;10096;51.112;6.776;2023-03-21T15:10:45;13.90;1.00
19868;DHT22;10096;51.112;6.776;2023-03-21T15:13:24;13.80;1.00
19868;DHT22;10096;51.112;6.776;2023-03-21T15:15:55;13.70;1.00
19868;DHT22;10096;51.112;6.776;2023-03-21T15:18:25;13.30;1.00
19868;DHT22;10096;51.112;6.776;2023-03-21T15:20:59;13.80;1.00
19868;DHT22;10096;51.112;6.776;2023-03-21T15:23:30;13.70;1.00
19868;DHT22;10096;51.112;6.776;2023-03-21T15:26:01;13.90;1.00
19868;DHT22;10096;51.112;6.776;2023-03-21T15:28:30;13.80;1.00
19868;DHT22;10096;51.112;6.776;2023-03-21T15:30:59;13.90;1.00
19868;DHT22;10096;51.112;6.776;2023-03-21T15:33:28;14.00;1.00
19868;DHT22;10096;51.112;6.776;2023-03-21T15:35:59;14.10;1.00
19868;DHT22;10096;51.112;6.776;2023-03-21T15:38:30;14.30;1.00
19868;DHT22;10096;51.112;6.776;2023-03-21T15:41:16;14.30;1.00
19868;DHT22;10096;51.112;6.776;2023-03-21T15:44:04;14.40;1.00
19868;DHT22;10096;51.112;6.776;2023-03-21T15:46:38;14.40;1.00
19868;DHT22;10096;51.112;6.776;2023-03-21T15:49:06;14.30;1.00
19868;DHT22;10096;51.112;6.776;2023-03-21T15:51:34;14.30;1.00
19868;DHT22;10096;51.112;6.776;2023-03-21T15:54:02;14.30;1.00
19868;DHT22;10096;51.112;6.776;2023-03-21T15:56:32;14.20;1.00
19868;DHT22;10096;51.112;6.776;2023-03-21T15:59:04;14.20;1.00
19868;DHT22;10096;51.112;6.776;2023-03-21T16:01:32;14.20;1.00
19868;DHT22;10096;51.112;6.776;2023-03-21T16:04:06;14.00;1.00
19868;DHT22;10096;51.112;6.776;2023-03-21T16:06:36;14.00;1.00
19868;DHT22;10096;51.112;6.776;2023-03-21T16:09:09;13.90;1.00
19868;DHT22;10096;51.112;6.776;2023-03-21T16:11:41;14.00;1.00
19868;DHT22;10096;51.112;6.776;2023-03-21T16:14:10;14.00;1.00
19868;DHT22;10096;51.112;6.776;2023-03-21T16:16:37;14.00;1.00
19868;DHT22;10096;51.112;6.776;2023-03-21T16:19:04;14.10;1.00
19868;DHT22;10096;51.112;6.776;2023-03-21T16:21:32;14.10;1.00